sensor_id;sensor_type;location;lat;lon;timestamp;temperature;humidity
70548;DHT22;58099;43.406;3.698;2023-06-10T06:45:21;22.30;99.90
70548;DHT22;58099;43.406;3.698;2023-06-10T06:47:47;22.50;99.90
70548;DHT22;58099;43.406;3.698;2023-06-10T06:50:13;22.60;99.90
70548;DHT22;58099;43.406;3.698;2023-06-10T06:52:39;22.60;99.90
70548;DHT22;58099;43.406;3.698;2023-06-10T06:55:05;22.80;99.90
70548;DHT22;58099;43.406;3.698;2023-06-10T06:57:31;22.80;99.90
70548;DHT22;58099;43.406;3.698;2023-06-10T06:59:57;23.00;99.90
70548;DHT22;58099;43.406;3.698;2023-06-10T07:02:23;23.00;99.90
70548;DHT22;58099;43.406;3.698;2023-06-10T07:04:49;23.10;99.90
70548;DHT22;58099;43.406;3.698;2023-06-10T07:07:15;23.10;99.90
70548;DHT22;58099;43.406;3.698;2023-06-10T07:09:41;23.30;99.90
70548;DHT22;58099;43.406;3.698;2023-06-10T07:12:07;23.50;99.90
70548;DHT22;58099;43.406;3.698;2023-06-10T07:14:33;23.60;99.90
70548;DHT22;58099;43.406;3.698;2023-06-10T07:16:59;23.80;99.90
70548;DHT22;58099;43.406;3.698;2023-06-10T07:19:24;23.70;99.90
70548;DHT22;58099;43.406;3.698;2023-06-10T07:21:50;23.80;99.90
70548;DHT22;58099;43.406;3.698;2023-06-10T07:24:16;23.90;99.90
70548;DHT22;58099;43.406;3.698;2023-06-10T07:26:41;24.00;99.90
70548;DHT22;58099;43.406;3.698;2023-06-10T07:29:07;24.10;99.90
70548;DHT22;58099;43.406;3.698;2023-06-10T07:31:33;24.10;99.90
70548;DHT22;58099;43.406;3.698;2023-06-10T07:33:58;24.10;99.90
70548;DHT22;58099;43.406;3.698;2023-06-10T07:36:24;24.20;99.90
70548;DHT22;58099;43.406;3.698;2023-06-10T07:38:53;24.40;99.90
70548;DHT22;58099;43.406;3.698;2023-06-10T07:41:19;24.40;99.90
70548;DHT22;58099;43.406;3.698;2023-06-10T07:43:45;24.30;99.90
70548;DHT22;58099;43.406;3.698;2023-06-10T07:46:11;24.30;99.90
70548;DHT22;58099;43.406;3.698;2023-06-10T07:48:37;24.30;99.90
70548;DHT22;58099;43.406;3.698;2023-06-10T07:51:02;24.20;99.90
70548;DHT22;58099;43.406;3.698;2023-06-10T07:53:28;24.10;99.90
70548;DHT22;58099;43.406;3.698;2023-06-10T07:55:54;24.00;99.90
70548;DHT22;58099;43.406;3.698;2023-06-10T07:58:20;24.00;99.90
70548;DHT22;58099;43.406;3.698;2023-06-10T08:00:47;23.90;99.90
70548;DHT22;58099;43.406;3.698;2023-06-10T08:03:13;24.10;99.90
70548;DHT22;58099;43.406;3.698;2023-06-10T08:05:39;24.30;99.90
70548;DHT22;58099;43.406;3.698;2023-06-10T08:08:05;24.50;99.90
70548;DHT22;58099;43.406;3.698;2023-06-10T08:10:31;24.90;99.90
70548;DHT22;58099;43.406;3.698;2023-06-10T08:12:57;24.90;99.90
70548;DHT22;58099;43.406;3.698;2023-06-10T08:15:22;24.90;99.90
70548;DHT22;58099;43.406;3.698;2023-06-10T08:17:48;25.10;99.90
70548;DHT22;58099;43.406;3.698;2023-06-10T08:20:14;25.10;99.90
70548;DHT22;58099;43.406;3.698;2023-06-10T08:22:40;25.00;99.90
70548;DHT22;58099;43.406;3.698;2023-06-10T08:25:05;24.70;99.90
70548;DHT22;58099;43.406;3.698;2023-06-10T08:27:31;24.60;99.90
70548;DHT22;58099;43.406;3.698;2023-06-10T08:29:57;24.60;99.90
70548;DHT22;58099;43.406;3.698;2023-06-10T08:32:24;24.60;99.90
70548;DHT22;58099;43.406;3.698;2023-06-10T08:34:50;24.40;99.90
70548;DHT22;58099;43.406;3.698;2023-06-10T08:37:16;24.30;99.90
70548;DHT22;58099;43.406;3.698;2023-06-10T08:39:41;24.00;99.90
70548;DHT22;58099;43.406;3.698;2023-06-10T08:42:25;24.10;99.90
70548;DHT22;58099;43.406;3.698;2023-06-10T08:44:54;24.00;99.90
70548;DHT22;58099;43.406;3.698;2023-06-10T08:47:23;24.10;99.90
70548;DHT22;58099;43.406;3.698;2023-06-10T08:49:49;24.20;99.90
70548;DHT22;58099;43.406;3.698;2023-06-10T08:52:20;24.30;99.90
70548;DHT22;58099;43.406;3.698;2023-06-10T08:54:52;24.30;99.90
70548;DHT22;58099;43.406;3.698;2023-06-10T08:57:20;24.20;99.90
70548;DHT22;58099;43.406;3.698;2023-06-10T08:59:48;24.50;99.90
70548;DHT22;58099;43.406;3.698;2023-06-10T09:02:15;24.70;99.90
70548;DHT22;58099;43.406;3.698;2023-06-10T09:04:42;24.40;99.90
70548;DHT22;58099;43.406;3.698;2023-06-10T09:07:10;24.70;99.90
70548;DHT22;58099;43.406;3.698;2023-06-10T09:09:36;24.50;99.90
70548;DHT22;58099;43.406;3.698;2023-06-10T09:12:03;24.30;99.90
70548;DHT22;58099;43.406;3.698;2023-06-10T09:14:29;24.20;99.90
70548;DHT22;58099;43.406;3.698;2023-06-10T09:16:55;24.00;99.90
70548;DHT22;58099;43.406;3.698;2023-06-10T09:19:25;24.20;99.90
70548;DHT22;58099;43.406;3.698;2023-06-10T09:21:51;24.30;99.90
70548;DHT22;58099;43.406;3.698;2023-06-10T09:24:16;24.70;99.90
70548;DHT22;58099;43.406;3.698;2023-06-10T09:26:43;25.00;99.90
70548;DHT22;58099;43.406;3.698;2023-06-10T09:29:09;25.00;99.90
70548;DHT22;58099;43.406;3.698;2023-06-10T09:31:38;25.10;99.90
70548;DHT22;58099;43.406;3.698;2023-06-10T09:34:09;25.40;99.90
70548;DHT22;58099;43.406;3.698;2023-06-10T09:36:39;25.20;99.90
70548;DHT22;58099;43.406;3.698;2023-06-10T09:39:13;25.00;99.90
70548;DHT22;58099;43.406;3.698;2023-06-10T09:41:41;24.90;99.90
70548;DHT22;58099;43.406;3.698;2023-06-10T09:44:13;24.90;99.90
70548;DHT22;58099;43.406;3.698;2023-06-10T09:46:40;25.00;99.90
70548;DHT22;58099;43.406;3.698;2023-06-10T09:49:06;25.20;99.90
70548;DHT22;58099;43.406;3.698;2023-06-10T09:51:32;25.50;99.90
70548;DHT22;58099;43.406;3.698;2023-06-10T09:53:59;25.80;99.90
70548;DHT22;58099;43.406;3.698;2023-06-10T09:56:34;25.60;99.90
70548;DHT22;58099;43.406;3.698;2023-06-10T09:59:01;25.10;99.90
70548;DHT22;58099;43.406;3.698;2023-06-10T10:01:27;24.90;99.90
70548;DHT22;58099;43.406;3.698;2023-06-10T10:03:52;24.70;99.90
70548;DHT22;58099;43.406;3.698;2023-06-10T10:06:19;24.80;99.90
70548;DHT22;58099;43.406;3.698;2023-06-10T10:08:50;25.10;99.90
70548;DHT22;58099;43.406;3.698;2023-06-10T10:11:20;25.60;99.90
70548;DHT22;58099;43.406;3.698;2023-06-10T10:13:49;25.70;99.90
70548;DHT22;58099;43.406;3.698;2023-06-10T10:16:17;25.50;99.90
70548;DHT22;58099;43.406;3.698;2023-06-10T10:18:52;25.10;99.90
70548;DHT22;58099;43.406;3.698;2023-06-10T10:21:23;24.80;99.90
70548;DHT22;58099;43.406;3.698;2023-06-10T10:24:01;24.60;99.90
70548;DHT22;58099;43.406;3.698;2023-06-10T10:26:29;25.00;99.90
70548;DHT22;58099;43.406;3.698;2023-06-10T10:29:14;25.10;99.90
70548;DHT22;58099;43.406;3.698;2023-06-10T10:31:43;25.20;99.90
70548;DHT22;58099;43.406;3.698;2023-06-10T10:34:16;25.30;99.90
70548;DHT22;58099;43.406;3.698;2023-06-10T10:36:44;25.30;99.90
70548;DHT22;58099;43.406;3.698;2023-06-10T10:39:11;25.40;99.90
70548;DHT22;58099;43.406;3.698;2023-06-10T10:41:38;25.30;99.90
70548;DHT22;58099;43.406;3.698;2023-06-10T10:44:06;25.30;99.90
70548;DHT22;58099;43.406;3.698;2023-06-10T10:46:48;25.60;99.90
70548;DHT22;58099;43.406;3.698;2023-06-10T10:49:15;25.50;99.90
70548;DHT22;58099;43.406;3.698;2023-06-10T10:52:01;25.80;99.90
70548;DHT22;58099;43.406;3.698;2023-06-10T10:54:34;25.60;99.90
70548;DHT22;58099;43.406;3.698;2023-06-10T11:02:40;24.90;99.90
70548;DHT22;58099;43.406;3.698;2023-06-10T11:05:07;24.90;99.90
70548;DHT22;58099;43.406;3.698;2023-06-10T11:07:34;25.00;99.90
70548;DHT22;58099;43.406;3.698;2023-06-10T11:10:30;25.00;99.90
70548;DHT22;58099;43.406;3.698;2023-06-10T11:12:56;25.00;99.90
70548;DHT22;58099;43.406;3.698;2023-06-10T11:18:12;24.80;99.90
70548;DHT22;58099;43.406;3.698;2023-06-10T11:25:51;24.40;99.90
70548;DHT22;58099;43.406;3.698;2023-06-10T11:28:21;24.70;99.90
70548;DHT22;58099;43.406;3.698;2023-06-10T11:30:57;24.50;99.90
70548;DHT22;58099;43.406;3.698;2023-06-10T11:33:24;24.50;99.90
70548;DHT22;58099;43.406;3.698;2023-06-10T11:35:50;24.60;99.90
70548;DHT22;58099;43.406;3.698;2023-06-10T11:38:16;24.70;99.90
70548;DHT22;58099;43.406;3.698;2023-06-10T11:40:48;24.90;99.90
70548;DHT22;58099;43.406;3.698;2023-06-10T11:43:16;24.80;99.90
70548;DHT22;58099;43.406;3.698;2023-06-10T11:45:42;24.70;99.90
70548;DHT22;58099;43.406;3.698;2023-06-10T11:48:09;24.50;99.90
70548;DHT22;58099;43.406;3.698;2023-06-10T11:50:35;24.40;99.90
70548;DHT22;58099;43.406;3.698;2023-06-10T11:53:02;24.30;99.90
70548;DHT22;58099;43.406;3.698;2023-06-10T11:55:48;24.60;99.90
70548;DHT22;58099;43.406;3.698;2023-06-10T11:58:19;24.20;99.90
70548;DHT22;58099;43.406;3.698;2023-06-10T12:00:55;24.30;99.90
70548;DHT22;58099;43.406;3.698;2023-06-10T12:03:24;24.20;99.90
70548;DHT22;58099;43.406;3.698;2023-06-10T12:06:02;24.30;99.90
70548;DHT22;58099;43.406;3.698;2023-06-10T12:08:28;24.50;99.90
70548;DHT22;58099;43.406;3.698;2023-06-10T12:10:54;24.80;99.90
70548;DHT22;58099;43.406;3.698;2023-06-10T12:13:21;24.80;99.90
70548;DHT22;58099;43.406;3.698;2023-06-10T12:15:47;25.10;99.90
70548;DHT22;58099;43.406;3.698;2023-06-10T12:18:23;24.90;99.90
70548;DHT22;58099;43.406;3.698;2023-06-10T12:20:50;24.90;99.90
70548;DHT22;58099;43.406;3.698;2023-06-10T12:23:17;24.50;99.90
70548;DHT22;58099;43.406;3.698;2023-06-10T12:25:53;24.70;99.90
70548;DHT22;58099;43.406;3.698;2023-06-10T12:28:23;24.50;99.90
70548;DHT22;58099;43.406;3.698;2023-06-10T12:30:50;24.50;99.90
70548;DHT22;58099;43.406;3.698;2023-06-10T12:33:17;24.40;99.90
70548;DHT22;58099;43.406;3.698;2023-06-10T12:35:50;24.50;99.90
70548;DHT22;58099;43.406;3.698;2023-06-10T12:38:21;24.90;99.90
70548;DHT22;58099;43.406;3.698;2023-06-10T12:40:47;24.70;99.90
70548;DHT22;58099;43.406;3.698;2023-06-10T12:43:13;24.90;99.90
70548;DHT22;58099;43.406;3.698;2023-06-10T12:45:44;25.00;99.90
70548;DHT22;58099;43.406;3.698;2023-06-10T12:48:12;25.00;99.90
70548;DHT22;58099;43.406;3.698;2023-06-10T12:50:40;25.00;99.90
70548;DHT22;58099;43.406;3.698;2023-06-10T12:53:06;24.20;99.90
70548;DHT22;58099;43.406;3.698;2023-06-10T12:55:32;24.00;99.90
70548;DHT22;58099;43.406;3.698;2023-06-10T12:57:59;24.30;99.90
70548;DHT22;58099;43.406;3.698;2023-06-10T13:00:25;24.30;99.90
70548;DHT22;58099;43.406;3.698;2023-06-10T13:02:54;24.10;99.90
70548;DHT22;58099;43.406;3.698;2023-06-10T13:05:20;24.20;99.90
70548;DHT22;58099;43.406;3.698;2023-06-10T13:07:46;24.30;99.90
70548;DHT22;58099;43.406;3.698;2023-06-10T13:10:16;24.30;99.90
70548;DHT22;58099;43.406;3.698;2023-06-10T13:12:43;24.60;99.90
70548;DHT22;58099;43.406;3.698;2023-06-10T13:15:09;24.70;99.90
70548;DHT22;58099;43.406;3.698;2023-06-10T13:17:38;24.30;99.90
70548;DHT22;58099;43.406;3.698;2023-06-10T13:20:06;24.70;99.90
70548;DHT22;58099;43.406;3.698;2023-06-10T13:22:33;24.30;99.90
70548;DHT22;58099;43.406;3.698;2023-06-10T13:25:01;24.30;99.90
70548;DHT22;58099;43.406;3.698;2023-06-10T13:27:33;24.20;99.90
70548;DHT22;58099;43.406;3.698;2023-06-10T13:30:09;24.10;99.90
70548;DHT22;58099;43.406;3.698;2023-06-10T13:32:40;23.90;99.90
70548;DHT22;58099;43.406;3.698;2023-06-10T13:35:09;24.00;99.90
70548;DHT22;58099;43.406;3.698;2023-06-10T13:37:35;24.20;99.90
70548;DHT22;58099;43.406;3.698;2023-06-10T13:40:01;24.60;99.90
70548;DHT22;58099;43.406;3.698;2023-06-10T13:42:28;24.70;99.90
70548;DHT22;58099;43.406;3.698;2023-06-10T13:44:54;24.80;99.90
70548;DHT22;58099;43.406;3.698;2023-06-10T13:47:20;24.70;99.90
70548;DHT22;58099;43.406;3.698;2023-06-10T13:49:46;24.50;99.90
70548;DHT22;58099;43.406;3.698;2023-06-10T13:52:12;24.30;99.90
70548;DHT22;58099;43.406;3.698;2023-06-10T13:54:37;24.60;99.90
70548;DHT22;58099;43.406;3.698;2023-06-10T13:57:06;24.50;99.90
70548;DHT22;58099;43.406;3.698;2023-06-10T13:59:33;24.50;99.90
70548;DHT22;58099;43.406;3.698;2023-06-10T14:02:05;24.60;99.90
70548;DHT22;58099;43.406;3.698;2023-06-10T14:04:31;24.60;99.90
70548;DHT22;58099;43.406;3.698;2023-06-10T14:06:58;24.60;99.90
70548;DHT22;58099;43.406;3.698;2023-06-10T14:09:23;24.60;99.90
70548;DHT22;58099;43.406;3.698;2023-06-10T14:11:49;24.40;99.90
70548;DHT22;58099;43.406;3.698;2023-06-10T14:14:15;24.40;99.90
70548;DHT22;58099;43.406;3.698;2023-06-10T14:16:44;24.50;99.90
70548;DHT22;58099;43.406;3.698;2023-06-10T14:19:10;24.90;99.90
70548;DHT22;58099;43.406;3.698;2023-06-10T14:21:35;25.10;99.90
70548;DHT22;58099;43.406;3.698;2023-06-10T14:24:01;25.40;99.90
70548;DHT22;58099;43.406;3.698;2023-06-10T14:26:27;25.00;99.90
70548;DHT22;58099;43.406;3.698;2023-06-10T14:28:53;25.20;99.90
70548;DHT22;58099;43.406;3.698;2023-06-10T14:31:19;25.40;99.90
70548;DHT22;58099;43.406;3.698;2023-06-10T14:33:45;25.60;99.90
70548;DHT22;58099;43.406;3.698;2023-06-10T14:36:11;25.60;99.90
70548;DHT22;58099;43.406;3.698;2023-06-10T14:38:37;25.50;99.90
70548;DHT22;58099;43.406;3.698;2023-06-10T14:41:03;25.20;99.90
70548;DHT22;58099;43.406;3.698;2023-06-10T14:43:28;24.50;99.90
70548;DHT22;58099;43.406;3.698;2023-06-10T14:45:54;24.10;99.90
70548;DHT22;58099;43.406;3.698;2023-06-10T14:48:21;23.90;99.90
70548;DHT22;58099;43.406;3.698;2023-06-10T14:50:47;23.90;99.90
70548;DHT22;58099;43.406;3.698;2023-06-10T14:53:17;24.10;99.90
70548;DHT22;58099;43.406;3.698;2023-06-10T14:55:43;24.00;99.90
70548;DHT22;58099;43.406;3.698;2023-06-10T14:58:08;23.90;99.90
70548;DHT22;58099;43.406;3.698;2023-06-10T15:00:34;23.70;99.90
70548;DHT22;58099;43.406;3.698;2023-06-10T15:03:00;23.90;99.90
70548;DHT22;58099;43.406;3.698;2023-06-10T15:05:25;23.80;99.90
70548;DHT22;58099;43.406;3.698;2023-06-10T15:07:51;23.80;99.90
70548;DHT22;58099;43.406;3.698;2023-06-10T15:10:17;23.50;99.90
70548;DHT22;58099;43.406;3.698;2023-06-10T15:12:43;23.40;99.90
70548;DHT22;58099;43.406;3.698;2023-06-10T15:15:09;23.40;99.90
70548;DHT22;58099;43.406;3.698;2023-06-10T15:17:35;23.40;99.90
70548;DHT22;58099;43.406;3.698;2023-06-10T15:20:01;23.10;99.90
70548;DHT22;58099;43.406;3.698;2023-06-10T15:22:27;23.20;99.90
70548;DHT22;58099;43.406;3.698;2023-06-10T15:24:52;23.40;99.90
70548;DHT22;58099;43.406;3.698;2023-06-10T15:27:18;23.60;99.90
70548;DHT22;58099;43.406;3.698;2023-06-10T15:29:44;24.00;99.90
70548;DHT22;58099;43.406;3.698;2023-06-10T15:32:10;24.20;99.90
70548;DHT22;58099;43.406;3.698;2023-06-10T15:34:35;23.90;99.90
70548;DHT22;58099;43.406;3.698;2023-06-10T15:37:01;23.90;99.90
70548;DHT22;58099;43.406;3.698;2023-06-10T15:39:27;23.90;99.90
70548;DHT22;58099;43.406;3.698;2023-06-10T15:41:53;23.90;99.90
70548;DHT22;58099;43.406;3.698;2023-06-10T15:44:18;23.80;99.90
70548;DHT22;58099;43.406;3.698;2023-06-10T15:46:44;23.80;99.90
70548;DHT22;58099;43.406;3.698;2023-06-10T15:49:10;23.90;99.90
70548;DHT22;58099;43.406;3.698;2023-06-10T15:51:36;23.80;99.90
70548;DHT22;58099;43.406;3.698;2023-06-10T15:54:02;23.80;99.90
70548;DHT22;58099;43.406;3.698;2023-06-10T15:56:27;23.60;99.90
70548;DHT22;58099;43.406;3.698;2023-06-10T15:58:53;23.50;99.90
70548;DHT22;58099;43.406;3.698;2023-06-10T16:01:19;23.40;99.90
70548;DHT22;58099;43.406;3.698;2023-06-10T16:03:44;23.20;99.90
70548;DHT22;58099;43.406;3.698;2023-06-10T16:06:10;23.50;99.90
70548;DHT22;58099;43.406;3.698;2023-06-10T16:08:36;23.50;99.90
70548;DHT22;58099;43.406;3.698;2023-06-10T16:11:02;23.60;99.90
70548;DHT22;58099;43.406;3.698;2023-06-10T16:13:29;23.50;99.90
70548;DHT22;58099;43.406;3.698;2023-06-10T16:15:55;23.50;99.90
70548;DHT22;58099;43.406;3.698;2023-06-10T16:18:20;23.50;99.90
70548;DHT22;58099;43.406;3.698;2023-06-10T16:20:46;23.30;99.90
70548;DHT22;58099;43.406;3.698;2023-06-10T16:23:12;23.20;99.90
70548;DHT22;58099;43.406;3.698;2023-06-10T16:25:37;23.30;99.90
70548;DHT22;58099;43.406;3.698;2023-06-10T16:28:04;23.40;99.90
70548;DHT22;58099;43.406;3.698;2023-06-10T16:30:30;23.30;99.90
70548;DHT22;58099;43.406;3.698;2023-06-10T16:32:56;23.20;99.90
70548;DHT22;58099;43.406;3.698;2023-06-10T16:35:22;23.20;99.90
70548;DHT22;58099;43.406;3.698;2023-06-10T16:37:47;23.40;99.90
70548;DHT22;58099;43.406;3.698;2023-06-10T16:40:13;23.50;99.90
70548;DHT22;58099;43.406;3.698;2023-06-10T16:42:39;23.70;99.90
70548;DHT22;58099;43.406;3.698;2023-06-10T16:45:05;23.70;99.90
70548;DHT22;58099;43.406;3.698;2023-06-10T16:47:31;23.50;99.90
70548;DHT22;58099;43.406;3.698;2023-06-10T16:49:57;23.40;99.90
70548;DHT22;58099;43.406;3.698;2023-06-10T16:52:23;23.50;99.90
70548;DHT22;58099;43.406;3.698;2023-06-10T16:54:49;23.60;99.90
70548;DHT22;58099;43.406;3.698;2023-06-10T16:57:15;23.90;99.90
70548;DHT22;58099;43.406;3.698;2023-06-10T16:59:41;23.90;99.90
70548;DHT22;58099;43.406;3.698;2023-06-10T17:02:08;23.80;99.90
70548;DHT22;58099;43.406;3.698;2023-06-10T17:04:33;23.90;99.90
70548;DHT22;58099;43.406;3.698;2023-06-10T17:06:59;23.90;99.90
70548;DHT22;58099;43.406;3.698;2023-06-10T17:09:26;24.00;99.90
70548;DHT22;58099;43.406;3.698;2023-06-10T17:11:51;23.90;99.90
70548;DHT22;58099;43.406;3.698;2023-06-10T17:14:17;24.00;99.90
70548;DHT22;58099;43.406;3.698;2023-06-10T17:16:43;24.00;99.90
70548;DHT22;58099;43.406;3.698;2023-06-10T17:19:08;24.00;99.90
70548;DHT22;58099;43.406;3.698;2023-06-10T17:21:34;24.10;99.90
70548;DHT22;58099;43.406;3.698;2023-06-10T17:24:00;24.10;99.90
70548;DHT22;58099;43.406;3.698;2023-06-10T17:26:26;23.90;99.90
70548;DHT22;58099;43.406;3.698;2023-06-10T17:28:52;24.00;99.90
70548;DHT22;58099;43.406;3.698;2023-06-10T17:31:19;24.00;99.90
70548;DHT22;58099;43.406;3.698;2023-06-10T17:33:44;24.00;99.90
70548;DHT22;58099;43.406;3.698;2023-06-10T17:36:10;24.00;99.90
70548;DHT22;58099;43.406;3.698;2023-06-10T17:38:36;23.90;99.90
70548;DHT22;58099;43.406;3.698;2023-06-10T17:41:01;23.70;99.90
70548;DHT22;58099;43.406;3.698;2023-06-10T17:43:27;23.80;99.90
70548;DHT22;58099;43.406;3.698;2023-06-10T17:45:53;23.80;99.90
70548;DHT22;58099;43.406;3.698;2023-06-10T17:48:18;23.70;99.90
70548;DHT22;58099;43.406;3.698;2023-06-10T17:50:44;23.70;99.90
70548;DHT22;58099;43.406;3.698;2023-06-10T17:53:10;23.60;99.90
70548;DHT22;58099;43.406;3.698;2023-06-10T17:55:36;23.70;99.90
70548;DHT22;58099;43.406;3.698;2023-06-10T17:58:02;23.60;99.90
70548;DHT22;58099;43.406;3.698;2023-06-10T18:00:28;23.40;99.90
70548;DHT22;58099;43.406;3.698;2023-06-10T18:02:53;23.40;99.90
70548;DHT22;58099;43.406;3.698;2023-06-10T18:05:19;23.40;99.90
70548;DHT22;58099;43.406;3.698;2023-06-10T18:07:45;23.50;99.90
70548;DHT22;58099;43.406;3.698;2023-06-10T18:10:11;23.40;99.90
70548;DHT22;58099;43.406;3.698;2023-06-10T18:12:37;23.40;99.90
70548;DHT22;58099;43.406;3.698;2023-06-10T18:15:04;23.30;99.90
70548;DHT22;58099;43.406;3.698;2023-06-10T18:17:31;23.40;99.90
70548;DHT22;58099;43.406;3.698;2023-06-10T18:19:59;23.40;99.90
70548;DHT22;58099;43.406;3.698;2023-06-10T18:22:25;23.40;99.90
70548;DHT22;58099;43.406;3.698;2023-06-10T18:24:51;23.40;99.90
70548;DHT22;58099;43.406;3.698;2023-06-10T18:27:16;23.50;99.90
70548;DHT22;58099;43.406;3.698;2023-06-10T18:29:42;23.50;99.90
70548;DHT22;58099;43.406;3.698;2023-06-10T18:32:08;23.60;99.90
70548;DHT22;58099;43.406;3.698;2023-06-10T18:34:34;23.60;99.90
70548;DHT22;58099;43.406;3.698;2023-06-10T18:37:02;23.40;99.90
70548;DHT22;58099;43.406;3.698;2023-06-10T18:39:29;23.40;99.90
70548;DHT22;58099;43.406;3.698;2023-06-10T18:41:55;23.30;99.90
70548;DHT22;58099;43.406;3.698;2023-06-10T18:44:20;23.40;99.90
70548;DHT22;58099;43.406;3.698;2023-06-10T18:46:46;23.50;99.90
70548;DHT22;58099;43.406;3.698;2023-06-10T18:49:12;23.50;99.90
70548;DHT22;58099;43.406;3.698;2023-06-10T18:51:38;23.50;99.90
70548;DHT22;58099;43.406;3.698;2023-06-10T18:54:03;23.50;99.90
70548;DHT22;58099;43.406;3.698;2023-06-10T18:56:29;23.50;99.90
70548;DHT22;58099;43.406;3.698;2023-06-10T18:58:55;23.60;99.90
70548;DHT22;58099;43.406;3.698;2023-06-10T19:01:21;23.60;99.90
70548;DHT22;58099;43.406;3.698;2023-06-10T19:03:47;23.60;99.90
70548;DHT22;58099;43.406;3.698;2023-06-10T19:06:13;23.70;99.90
70548;DHT22;58099;43.406;3.698;2023-06-10T19:08:38;23.70;99.90
70548;DHT22;58099;43.406;3.698;2023-06-10T19:11:06;23.70;99.90
70548;DHT22;58099;43.406;3.698;2023-06-10T19:13:32;23.70;99.90
70548;DHT22;58099;43.406;3.698;2023-06-10T19:15:58;23.60;99.90
70548;DHT22;58099;43.406;3.698;2023-06-10T19:18:24;23.60;99.90
70548;DHT22;58099;43.406;3.698;2023-06-10T19:20:50;23.60;99.90
70548;DHT22;58099;43.406;3.698;2023-06-10T19:23:16;23.60;99.90
70548;DHT22;58099;43.406;3.698;2023-06-10T19:25:42;23.60;99.90
70548;DHT22;58099;43.406;3.698;2023-06-10T19:28:08;23.60;99.90
70548;DHT22;58099;43.406;3.698;2023-06-10T19:30:36;23.60;99.90
70548;DHT22;58099;43.406;3.698;2023-06-10T19:33:01;23.70;99.90
70548;DHT22;58099;43.406;3.698;2023-06-10T19:35:27;23.60;99.90
70548;DHT22;58099;43.406;3.698;2023-06-10T19:37:53;23.50;99.90
70548;DHT22;58099;43.406;3.698;2023-06-10T19:40:19;23.50;99.90
70548;DHT22;58099;43.406;3.698;2023-06-10T19:42:46;23.50;99.90
70548;DHT22;58099;43.406;3.698;2023-06-10T19:45:12;23.60;99.90
70548;DHT22;58099;43.406;3.698;2023-06-10T19:47:37;23.60;99.90
70548;DHT22;58099;43.406;3.698;2023-06-10T19:50:03;23.60;99.90
70548;DHT22;58099;43.406;3.698;2023-06-10T19:52:29;23.50;99.90
70548;DHT22;58099;43.406;3.698;2023-06-10T19:54:56;23.50;99.90
70548;DHT22;58099;43.406;3.698;2023-06-10T19:57:22;23.40;99.90
70548;DHT22;58099;43.406;3.698;2023-06-10T19:59:48;23.30;99.90
70548;DHT22;58099;43.406;3.698;2023-06-10T20:02:14;23.30;99.90
70548;DHT22;58099;43.406;3.698;2023-06-10T20:04:39;23.30;99.90
70548;DHT22;58099;43.406;3.698;2023-06-10T20:07:05;23.30;99.90
70548;DHT22;58099;43.406;3.698;2023-06-10T20:09:31;23.20;99.90
70548;DHT22;58099;43.406;3.698;2023-06-10T20:11:56;23.20;99.90
70548;DHT22;58099;43.406;3.698;2023-06-10T20:14:22;23.20;99.90
70548;DHT22;58099;43.406;3.698;2023-06-10T20:16:48;23.30;99.90
70548;DHT22;58099;43.406;3.698;2023-06-10T20:19:14;23.30;99.90
70548;DHT22;58099;43.406;3.698;2023-06-10T20:21:40;23.40;99.90
70548;DHT22;58099;43.406;3.698;2023-06-10T20:24:06;23.40;99.90
70548;DHT22;58099;43.406;3.698;2023-06-10T20:26:32;23.40;99.90
70548;DHT22;58099;43.406;3.698;2023-06-10T20:28:59;23.40;99.90
70548;DHT22;58099;43.406;3.698;2023-06-10T20:31:25;23.40;99.90
70548;DHT22;58099;43.406;3.698;2023-06-10T20:33:54;23.40;99.90
70548;DHT22;58099;43.406;3.698;2023-06-10T20:36:21;23.50;99.90
70548;DHT22;58099;43.406;3.698;2023-06-10T20:38:47;23.60;99.90
70548;DHT22;58099;43.406;3.698;2023-06-10T20:41:15;23.70;99.90
70548;DHT22;58099;43.406;3.698;2023-06-10T20:43:41;23.70;99.90
70548;DHT22;58099;43.406;3.698;2023-06-10T20:46:07;23.70;99.90
70548;DHT22;58099;43.406;3.698;2023-06-10T20:48:33;23.60;99.90
70548;DHT22;58099;43.406;3.698;2023-06-10T20:50:59;23.50;99.90
70548;DHT22;58099;43.406;3.698;2023-06-10T20:53:24;23.40;99.90
70548;DHT22;58099;43.406;3.698;2023-06-10T20:55:50;23.40;99.90
70548;DHT22;58099;43.406;3.698;2023-06-10T20:58:16;23.30;99.90
70548;DHT22;58099;43.406;3.698;2023-06-10T21:00:42;23.30;99.90
70548;DHT22;58099;43.406;3.698;2023-06-10T21:03:07;23.30;99.90
70548;DHT22;58099;43.406;3.698;2023-06-10T21:05:33;23.30;99.90
70548;DHT22;58099;43.406;3.698;2023-06-10T21:07:59;23.40;99.90
70548;DHT22;58099;43.406;3.698;2023-06-10T21:10:25;23.30;99.90
70548;DHT22;58099;43.406;3.698;2023-06-10T21:12:50;23.40;99.90
70548;DHT22;58099;43.406;3.698;2023-06-10T21:15:17;23.30;99.90
70548;DHT22;58099;43.406;3.698;2023-06-10T21:17:43;23.30;99.90
70548;DHT22;58099;43.406;3.698;2023-06-10T21:20:10;23.30;99.90
70548;DHT22;58099;43.406;3.698;2023-06-10T21:22:36;23.30;99.90
70548;DHT22;58099;43.406;3.698;2023-06-10T21:25:02;23.30;99.90
70548;DHT22;58099;43.406;3.698;2023-06-10T21:27:27;23.30;99.90
70548;DHT22;58099;43.406;3.698;2023-06-10T21:29:53;23.30;99.90
70548;DHT22;58099;43.406;3.698;2023-06-10T21:32:19;23.20;99.90
70548;DHT22;58099;43.406;3.698;2023-06-10T21:34:45;23.20;99.90
70548;DHT22;58099;43.406;3.698;2023-06-10T21:37:10;23.20;99.90
70548;DHT22;58099;43.406;3.698;2023-06-10T21:39:36;23.20;99.90
70548;DHT22;58099;43.406;3.698;2023-06-10T21:42:02;23.10;99.90
70548;DHT22;58099;43.406;3.698;2023-06-10T21:44:28;23.10;99.90
70548;DHT22;58099;43.406;3.698;2023-06-10T21:46:53;23.10;99.90
70548;DHT22;58099;43.406;3.698;2023-06-10T21:49:19;23.10;99.90
70548;DHT22;58099;43.406;3.698;2023-06-10T21:51:45;23.10;99.90
70548;DHT22;58099;43.406;3.698;2023-06-10T21:54:13;23.10;99.90
70548;DHT22;58099;43.406;3.698;2023-06-10T21:56:40;23.10;99.90
70548;DHT22;58099;43.406;3.698;2023-06-10T21:59:06;23.10;99.90
70548;DHT22;58099;43.406;3.698;2023-06-10T22:01:31;23.00;99.90
70548;DHT22;58099;43.406;3.698;2023-06-10T22:04:01;23.10;99.90
70548;DHT22;58099;43.406;3.698;2023-06-10T22:06:27;23.10;99.90
70548;DHT22;58099;43.406;3.698;2023-06-10T22:08:52;23.10;99.90
70548;DHT22;58099;43.406;3.698;2023-06-10T22:11:18;23.00;99.90
70548;DHT22;58099;43.406;3.698;2023-06-10T22:13:44;23.10;99.90
70548;DHT22;58099;43.406;3.698;2023-06-10T22:16:10;23.00;99.90
70548;DHT22;58099;43.406;3.698;2023-06-10T22:18:36;23.10;99.90
70548;DHT22;58099;43.406;3.698;2023-06-10T22:21:02;23.10;99.90
70548;DHT22;58099;43.406;3.698;2023-06-10T22:23:28;23.10;99.90
70548;DHT22;58099;43.406;3.698;2023-06-10T22:25:53;23.10;99.90